Time;durP1;ratioP1;P1;durP2;ratioP2;P2;SDS_P1;SDS_P2;PMS_P1;PMS_P2;Temp;Humidity;BMP_temperature;BMP_pressure;BME280_temperature;BME280_humidity;BME280_pressure;Samples;Min_cycle;Max_cycle;Signal;HPM_P1;HPM_P2
2024/03/20 00:00:11;;;;;;;23.20;8.75;;;9.30;99.90;;;;;;4957662;28;20559;-74
2024/03/20 00:02:38;;;;;;;22.30;8.63;;;9.30;99.90;;;;;;4927888;29;20042;-74
2024/03/20 00:05:04;;;;;;;18.90;8.40;;;9.30;99.90;;;;;;4951038;29;20024;-74
2024/03/20 00:07:30;;;;;;;28.45;7.85;;;9.30;99.90;;;;;;4939744;28;20032;-74
2024/03/20 00:09:56;;;;;;;18.17;7.82;;;9.20;99.90;;;;;;4919636;29;20543;-74
2024/03/20 00:12:26;;;;;;;23.10;8.23;;;9.20;99.90;;;;;;4947847;28;20489;-74
2024/03/20 00:14:52;;;;;;;20.80;8.93;;;9.20;99.90;;;;;;4934928;28;20039;-74
2024/03/20 00:17:18;;;;;;;17.00;7.65;;;9.20;99.90;;;;;;4923553;29;20063;-74
2024/03/20 00:19:44;;;;;;;16.65;8.43;;;9.20;99.90;;;;;;4950986;28;20091;-74
2024/03/20 00:22:10;;;;;;;18.48;8.85;;;9.20;99.90;;;;;;4947467;29;20036;-74
2024/03/20 00:24:36;;;;;;;26.60;9.63;;;9.10;99.90;;;;;;4950550;28;20128;-74
2024/03/20 00:27:01;;;;;;;23.85;9.80;;;9.10;99.90;;;;;;4948409;28;20031;-74
2024/03/20 00:29:27;;;;;;;19.42;8.35;;;9.20;99.90;;;;;;4944562;29;20028;-74
2024/03/20 00:31:55;;;;;;;18.23;8.82;;;9.30;99.90;;;;;;4949573;28;20023;-74
2024/03/20 00:34:21;;;;;;;23.15;9.15;;;9.30;99.90;;;;;;4942013;29;20479;-74
2024/03/20 00:36:48;;;;;;;16.17;8.73;;;9.30;99.90;;;;;;4945607;28;20035;-76
2024/03/20 00:39:14;;;;;;;21.55;10.27;;;9.30;99.90;;;;;;4913706;28;20416;-74
2024/03/20 00:41:39;;;;;;;29.80;10.60;;;9.30;99.90;;;;;;4950313;28;20028;-74
2024/03/20 00:44:05;;;;;;;18.50;9.40;;;9.30;99.90;;;;;;4923557;29;20044;-74
2024/03/20 00:46:31;;;;;;;24.63;11.20;;;9.30;99.90;;;;;;4947800;28;20028;-73
2024/03/20 00:48:57;;;;;;;23.88;10.52;;;9.30;99.90;;;;;;4929586;29;20473;-73
2024/03/20 00:51:22;;;;;;;23.60;9.68;;;9.30;99.90;;;;;;4932576;29;20071;-73
2024/03/20 00:53:48;;;;;;;29.35;10.82;;;9.20;99.90;;;;;;4945635;28;20024;-73
2024/03/20 00:56:14;;;;;;;29.40;10.68;;;9.30;99.90;;;;;;4932228;29;20036;-74
2024/03/20 00:58:40;;;;;;;33.20;12.45;;;9.30;99.90;;;;;;4951107;28;20071;-74
2024/03/20 01:01:06;;;;;;;26.42;10.88;;;9.30;99.90;;;;;;4946100;29;20027;-73
2024/03/20 01:03:32;;;;;;;26.10;11.68;;;9.30;99.90;;;;;;4940977;29;20142;-74
2024/03/20 01:05:58;;;;;;;32.00;11.45;;;9.30;99.90;;;;;;4939523;28;20058;-73
2024/03/20 01:08:24;;;;;;;24.90;10.13;;;9.30;99.90;;;;;;4934304;28;20034;-73
2024/03/20 01:10:50;;;;;;;30.08;11.25;;;9.30;99.90;;;;;;4940553;28;20020;-74
2024/03/20 01:13:19;;;;;;;33.33;11.93;;;9.40;99.90;;;;;;4949232;28;20028;-74
2024/03/20 01:15:45;;;;;;;26.95;11.95;;;9.40;99.90;;;;;;4948636;29;20032;-74
2024/03/20 01:18:11;;;;;;;37.63;13.35;;;9.40;99.90;;;;;;4944840;29;20087;-74
2024/03/20 01:20:37;;;;;;;30.50;11.88;;;9.40;99.90;;;;;;4933938;29;20038;-74
2024/03/20 01:23:03;;;;;;;35.70;12.25;;;9.50;99.90;;;;;;4949380;29;20046;-73
2024/03/20 01:25:28;;;;;;;23.58;10.88;;;9.60;99.90;;;;;;4940972;28;20032;-74
2024/03/20 01:27:54;;;;;;;36.28;11.15;;;9.50;99.90;;;;;;4939971;28;20031;-74
2024/03/20 01:30:20;;;;;;;32.28;12.55;;;9.40;99.90;;;;;;4935271;28;20076;-74
2024/03/20 01:32:46;;;;;;;29.83;13.40;;;9.30;99.90;;;;;;4933287;29;20110;-75
2024/03/20 01:35:12;;;;;;;40.83;13.10;;;9.20;99.90;;;;;;4941284;28;20043;-74
2024/03/20 01:37:38;;;;;;;33.78;13.00;;;9.20;99.90;;;;;;4925598;29;20035;-74
2024/03/20 01:40:06;;;;;;;28.15;12.90;;;9.20;99.90;;;;;;4927052;29;20090;-74
2024/03/20 01:42:33;;;;;;;29.83;13.05;;;9.10;99.90;;;;;;4937215;29;20437;-73
2024/03/20 01:45:17;;;;;;;30.77;11.38;;;9.10;99.90;;;;;;4930406;28;20064;-74
2024/03/20 01:47:45;;;;;;;31.00;14.18;;;9.00;99.90;;;;;;4956618;28;20066;-74
2024/03/20 01:50:13;;;;;;;32.63;12.18;;;9.00;99.90;;;;;;4934532;29;20047;-73
2024/03/20 01:52:55;;;;;;;31.13;11.15;;;9.00;99.90;;;;;;4938110;29;20027;-74
2024/03/20 01:55:24;;;;;;;34.92;12.05;;;8.90;99.90;;;;;;4941336;28;20035;-75
2024/03/20 01:57:52;;;;;;;31.58;11.85;;;8.90;99.90;;;;;;4948776;29;20024;-73
2024/03/20 02:00:23;;;;;;;25.95;10.60;;;8.80;99.90;;;;;;4943055;28;20043;-73
2024/03/20 02:02:53;;;;;;;26.90;13.35;;;8.70;99.90;;;;;;4945434;28;20169;-74
2024/03/20 02:05:19;;;;;;;26.27;10.90;;;8.70;99.90;;;;;;4952575;28;20159;-74
2024/03/20 02:07:46;;;;;;;33.25;12.02;;;8.60;99.90;;;;;;4943243;29;20290;-74
2024/03/20 02:10:12;;;;;;;31.60;11.88;;;8.50;99.90;;;;;;4948730;28;20102;-75
2024/03/20 02:12:38;;;;;;;29.52;11.82;;;8.50;99.90;;;;;;4930689;29;20420;-74
2024/03/20 02:15:09;;;;;;;26.23;10.68;;;8.40;99.90;;;;;;4942345;29;20055;-74
2024/03/20 02:17:39;;;;;;;28.75;12.93;;;8.30;99.90;;;;;;4910014;29;20031;-73
2024/03/20 02:20:07;;;;;;;33.95;12.13;;;8.30;99.90;;;;;;4949029;29;20122;-74
2024/03/20 02:22:43;;;;;;;28.80;12.20;;;8.30;99.90;;;;;;4953007;28;20094;-74
2024/03/20 02:25:11;;;;;;;40.00;12.88;;;8.30;99.90;;;;;;4945251;28;20035;-74
2024/03/20 02:27:38;;;;;;;35.78;13.15;;;8.30;99.90;;;;;;4938529;28;20039;-73
2024/03/20 02:30:10;;;;;;;21.73;9.68;;;8.20;99.90;;;;;;4921748;29;20173;-75
2024/03/20 02:32:37;;;;;;;30.92;11.90;;;8.30;99.90;;;;;;4926872;29;20116;-73
2024/03/20 02:35:03;;;;;;;32.38;12.18;;;8.30;99.90;;;;;;4938322;28;20103;-73
2024/03/20 02:37:29;;;;;;;24.55;9.55;;;8.20;99.90;;;;;;4957439;28;20038;-74
2024/03/20 02:39:55;;;;;;;28.95;10.90;;;8.10;99.90;;;;;;4934837;29;20380;-74
2024/03/20 02:42:22;;;;;;;26.33;11.98;;;8.00;99.90;;;;;;4943200;29;20047;-74
2024/03/20 02:44:49;;;;;;;27.88;11.55;;;8.00;99.90;;;;;;4950478;28;20066;-74
2024/03/20 02:47:15;;;;;;;23.98;11.45;;;7.90;99.90;;;;;;4968916;28;20501;-74
2024/03/20 02:49:41;;;;;;;24.83;10.88;;;7.90;99.90;;;;;;4948827;28;20175;-74
2024/03/20 02:52:07;;;;;;;23.48;10.13;;;7.90;99.90;;;;;;4933243;29;20118;-73
2024/03/20 02:54:33;;;;;;;31.52;11.73;;;8.00;99.90;;;;;;4944233;29;20048;-73
2024/03/20 02:56:58;;;;;;;24.23;10.82;;;8.00;99.90;;;;;;4948065;28;20114;-73
2024/03/20 02:59:24;;;;;;;24.52;10.85;;;8.10;99.90;;;;;;4940825;28;20040;-73
2024/03/20 03:01:50;;;;;;;32.58;11.75;;;8.10;99.90;;;;;;4933830;29;20027;-75
2024/03/20 03:04:16;;;;;;;28.88;10.23;;;8.10;99.90;;;;;;4940945;28;20489;-73
2024/03/20 03:06:41;;;;;;;25.17;10.40;;;8.10;99.90;;;;;;4939462;28;20396;-73
2024/03/20 03:09:08;;;;;;;26.10;11.70;;;8.20;99.90;;;;;;4944155;29;20467;-74
2024/03/20 03:11:37;;;;;;;21.35;10.05;;;8.20;99.90;;;;;;4952847;28;20033;-74
2024/03/20 03:14:03;;;;;;;22.90;10.82;;;8.30;99.90;;;;;;4937256;28;20086;-74
2024/03/20 03:16:29;;;;;;;37.30;11.35;;;8.30;99.90;;;;;;4948041;28;20036;-73
2024/03/20 03:18:55;;;;;;;23.00;9.35;;;8.30;99.90;;;;;;4950713;28;20035;-74
2024/03/20 03:21:20;;;;;;;24.42;10.32;;;8.30;99.90;;;;;;4949706;29;20047;-74
2024/03/20 03:23:46;;;;;;;23.88;9.23;;;8.30;99.90;;;;;;4924619;29;20063;-75
2024/03/20 03:26:12;;;;;;;22.88;10.23;;;8.40;99.90;;;;;;4955455;28;20511;-74
2024/03/20 03:28:38;;;;;;;23.05;9.10;;;8.40;99.90;;;;;;4935380;29;20031;-74
2024/03/20 03:31:03;;;;;;;20.98;8.88;;;8.30;99.90;;;;;;4947421;29;20073;-74
2024/03/20 03:33:29;;;;;;;22.38;9.73;;;8.30;99.90;;;;;;4945496;28;20567;-74
2024/03/20 03:36:08;;;;;;;26.52;9.52;;;8.30;99.90;;;;;;4940452;29;20036;-74
2024/03/20 03:38:35;;;;;;;20.75;10.05;;;8.30;99.90;;;;;;4942667;29;20076;-74
2024/03/20 03:41:02;;;;;;;22.92;7.78;;;8.20;99.90;;;;;;4914491;29;20075;-74
2024/03/20 03:43:28;;;;;;;27.55;9.27;;;8.10;99.90;;;;;;4935309;29;20035;-74
2024/03/20 03:45:55;;;;;;;24.38;9.00;;;8.10;99.90;;;;;;4930221;29;20032;-73
2024/03/20 03:48:21;;;;;;;20.33;8.45;;;8.00;99.90;;;;;;4935345;29;20497;-74
2024/03/20 03:50:50;;;;;;;16.95;7.28;;;8.00;99.90;;;;;;4944352;29;20118;-74
2024/03/20 03:53:17;;;;;;;13.98;8.48;;;7.90;99.90;;;;;;4922435;29;20080;-74
2024/03/20 03:55:44;;;;;;;21.45;9.00;;;7.80;99.90;;;;;;4932222;29;20035;-74
2024/03/20 03:58:09;;;;;;;15.98;7.43;;;7.70;99.90;;;;;;4950830;28;20074;-74
2024/03/20 04:00:35;;;;;;;17.92;8.88;;;7.70;99.90;;;;;;4953361;28;20043;-74
2024/03/20 04:03:02;;;;;;;21.05;8.15;;;7.60;99.90;;;;;;4940205;29;20031;-74
2024/03/20 04:05:29;;;;;;;20.05;7.13;;;7.60;99.90;;;;;;4946876;28;20122;-74
2024/03/20 04:07:55;;;;;;;10.90;6.65;;;7.50;99.90;;;;;;4930771;28;20405;-74
2024/03/20 04:10:21;;;;;;;15.98;6.85;;;7.60;99.90;;;;;;4918343;29;20059;-74
2024/03/20 04:12:47;;;;;;;17.33;8.48;;;7.60;99.90;;;;;;4928808;29;20432;-74
2024/03/20 04:15:13;;;;;;;18.45;7.43;;;7.70;99.90;;;;;;4944089;28;20048;-74
2024/03/20 04:17:40;;;;;;;15.75;6.00;;;7.60;99.90;;;;;;4943959;28;20039;-74
2024/03/20 04:20:09;;;;;;;16.42;7.70;;;7.60;99.90;;;;;;4930326;29;20496;-74
2024/03/20 04:22:34;;;;;;;18.73;5.90;;;7.60;99.90;;;;;;4945363;28;20035;-74
2024/03/20 04:25:00;;;;;;;17.85;8.45;;;7.60;99.90;;;;;;4935531;29;20028;-74
2024/03/20 04:27:26;;;;;;;15.80;7.82;;;7.60;99.90;;;;;;4936882;29;20645;-74
2024/03/20 04:29:52;;;;;;;16.35;8.75;;;7.70;99.90;;;;;;4940839;28;20039;-73
2024/03/20 04:32:19;;;;;;;12.63;6.10;;;7.70;99.90;;;;;;4936949;29;20039;-73
2024/03/20 04:34:44;;;;;;;24.02;7.75;;;7.70;99.90;;;;;;4939971;28;20039;-74
2024/03/20 04:37:10;;;;;;;18.38;7.68;;;7.70;99.90;;;;;;4946325;28;20050;-73
2024/03/20 04:39:36;;;;;;;20.70;7.18;;;7.60;99.90;;;;;;4953047;29;20039;-74
2024/03/20 04:42:03;;;;;;;13.23;6.75;;;7.60;99.90;;;;;;4957463;28;20035;-74
2024/03/20 04:44:29;;;;;;;13.70;5.72;;;7.60;99.90;;;;;;4937227;28;20032;-75
2024/03/20 04:46:55;;;;;;;17.27;6.57;;;7.60;99.90;;;;;;4944767;28;20038;-74
2024/03/20 04:49:21;;;;;;;13.90;7.32;;;7.60;99.90;;;;;;4945620;28;20437;-74
2024/03/20 04:51:46;;;;;;;19.50;6.70;;;7.60;99.90;;;;;;4935618;29;20059;-74
2024/03/20 04:54:14;;;;;;;11.95;5.45;;;7.60;99.90;;;;;;4942989;29;20078;-74
2024/03/20 04:56:40;;;;;;;14.80;7.38;;;7.70;99.90;;;;;;4913957;29;20350;-75
2024/03/20 04:59:09;;;;;;;15.30;6.15;;;7.80;99.90;;;;;;4935358;28;20028;-75
2024/03/20 05:01:35;;;;;;;9.88;5.50;;;7.80;99.90;;;;;;4930969;29;20086;-74
2024/03/20 05:04:02;;;;;;;21.88;6.88;;;7.80;99.90;;;;;;4935101;29;20036;-74
2024/03/20 05:06:28;;;;;;;15.95;6.03;;;7.80;99.90;;;;;;4936289;29;20127;-74
2024/03/20 05:08:53;;;;;;;10.70;6.05;;;7.80;99.90;;;;;;4954148;28;20117;-74
2024/03/20 05:11:20;;;;;;;13.27;6.97;;;7.80;99.90;;;;;;4940688;29;20103;-74
2024/03/20 05:13:46;;;;;;;15.48;7.20;;;7.70;99.90;;;;;;4940498;29;20028;-74
2024/03/20 05:16:12;;;;;;;15.55;5.63;;;7.70;99.90;;;;;;4947154;28;20064;-74
2024/03/20 05:18:37;;;;;;;13.70;6.68;;;7.70;99.90;;;;;;4953000;28;20015;-74
2024/03/20 05:21:03;;;;;;;6.88;4.32;;;7.70;99.90;;;;;;4935668;28;20036;-74
2024/03/20 05:23:29;;;;;;;10.50;4.53;;;7.70;99.90;;;;;;4933797;29;20027;-73
2024/03/20 05:26:00;;;;;;;10.48;5.60;;;7.60;99.90;;;;;;4950946;28;20053;-74
2024/03/20 05:28:27;;;;;;;14.47;5.70;;;7.60;99.90;;;;;;4947935;29;20042;-74
2024/03/20 05:30:53;;;;;;;11.68;5.28;;;7.60;99.90;;;;;;4943151;28;20286;-74
2024/03/20 05:33:19;;;;;;;14.85;5.80;;;7.50;99.90;;;;;;4949662;28;20024;-74
2024/03/20 05:35:45;;;;;;;22.98;7.57;;;7.50;99.90;;;;;;4949195;29;20031;-74
2024/03/20 05:38:14;;;;;;;15.57;7.25;;;7.40;99.90;;;;;;4953122;28;20049;-74
2024/03/20 05:40:40;;;;;;;20.50;5.68;;;7.40;99.90;;;;;;4927043;28;20036;-74
2024/03/20 05:43:07;;;;;;;16.90;6.30;;;7.40;99.90;;;;;;4934868;28;20091;-74
2024/03/20 05:45:33;;;;;;;10.00;5.82;;;7.50;99.90;;;;;;4950105;28;20042;-70
2024/03/20 05:47:59;;;;;;;11.02;5.63;;;7.40;99.90;;;;;;4948229;28;20027;-74
2024/03/20 05:50:26;;;;;;;11.27;5.88;;;7.40;99.90;;;;;;4935196;29;20087;-73
2024/03/20 05:52:53;;;;;;;13.73;5.80;;;7.40;99.90;;;;;;4924108;29;20496;-73
2024/03/20 05:55:21;;;;;;;13.15;6.80;;;7.40;99.90;;;;;;4941511;28;20523;-73
2024/03/20 05:57:50;;;;;;;15.32;5.15;;;7.40;99.90;;;;;;4945727;28;20039;-73
2024/03/20 06:00:19;;;;;;;10.98;5.32;;;7.40;99.90;;;;;;4937274;28;20031;-73
2024/03/20 06:02:45;;;;;;;11.93;5.60;;;7.50;99.90;;;;;;4942603;28;20028;-74
2024/03/20 06:05:12;;;;;;;12.02;4.95;;;7.40;99.90;;;;;;4952391;28;20123;-73
2024/03/20 06:07:38;;;;;;;13.70;4.88;;;7.50;99.90;;;;;;4952170;29;20067;-73
2024/03/20 06:10:08;;;;;;;12.45;5.72;;;7.50;99.90;;;;;;4941700;29;20019;-75
2024/03/20 06:12:34;;;;;;;18.33;6.10;;;7.50;99.90;;;;;;4943712;29;20032;-74
2024/03/20 06:15:00;;;;;;;23.30;6.43;;;7.50;99.90;;;;;;4947170;29;20023;-74
2024/03/20 06:17:25;;;;;;;13.98;6.22;;;7.50;99.90;;;;;;4948398;28;20071;-74
2024/03/20 06:19:52;;;;;;;12.18;4.70;;;7.60;99.90;;;;;;4940334;29;20206;-74
2024/03/20 06:22:17;;;;;;;14.00;5.07;;;7.60;99.90;;;;;;4951365;29;20043;-74
2024/03/20 06:24:43;;;;;;;17.17;6.38;;;7.60;99.90;;;;;;4968438;28;20038;-74
2024/03/20 06:27:09;;;;;;;13.07;6.55;;;7.70;99.90;;;;;;4938144;28;20028;-75
2024/03/20 06:29:34;;;;;;;15.50;6.40;;;7.70;99.90;;;;;;4940893;29;20027;-74
2024/03/20 06:32:00;;;;;;;14.95;5.55;;;7.70;99.90;;;;;;4950098;29;20095;-74
2024/03/20 06:34:26;;;;;;;12.93;6.93;;;7.70;99.90;;;;;;4945113;28;20040;-74
2024/03/20 06:36:52;;;;;;;14.10;6.72;;;7.80;99.90;;;;;;4940888;29;20036;-72
2024/03/20 06:39:17;;;;;;;15.18;7.45;;;7.80;99.90;;;;;;4953746;28;20066;-73
2024/03/20 06:41:43;;;;;;;12.70;5.70;;;7.90;99.90;;;;;;4949591;28;20145;-73
2024/03/20 06:44:13;;;;;;;16.02;6.05;;;7.90;99.90;;;;;;4939879;29;20031;-73
2024/03/20 06:46:38;;;;;;;13.60;5.57;;;8.00;99.90;;;;;;4946266;29;20034;-73
2024/03/20 06:49:09;;;;;;;13.23;5.63;;;8.00;99.90;;;;;;4953930;29;20035;-72
2024/03/20 06:51:38;;;;;;;14.48;5.88;;;8.10;99.90;;;;;;4939985;29;20051;-72
2024/03/20 06:54:16;;;;;;;16.48;8.32;;;8.20;99.90;;;;;;4957667;28;20115;-72
2024/03/20 06:56:48;;;;;;;11.68;5.60;;;8.20;99.90;;;;;;4936042;29;20089;-72
2024/03/20 06:59:17;;;;;;;15.48;7.20;;;8.20;99.90;;;;;;4941611;29;20135;-72
2024/03/20 07:01:42;;;;;;;15.63;6.22;;;8.30;99.90;;;;;;4942812;28;20039;-72
2024/03/20 07:04:08;;;;;;;10.48;5.82;;;8.30;99.90;;;;;;4932613;29;20032;-72
2024/03/20 07:06:34;;;;;;;23.48;6.78;;;8.40;99.90;;;;;;4950585;29;20486;-72
2024/03/20 07:09:01;;;;;;;14.90;6.38;;;8.40;99.90;;;;;;4937233;29;20043;-72
2024/03/20 07:11:27;;;;;;;19.08;7.28;;;8.40;99.90;;;;;;4951021;28;20898;-72
2024/03/20 07:13:54;;;;;;;12.65;6.68;;;8.40;99.90;;;;;;4930610;29;20403;-72
2024/03/20 07:16:20;;;;;;;12.07;6.40;;;8.40;99.90;;;;;;4936551;29;20036;-72
2024/03/20 07:18:46;;;;;;;12.32;6.47;;;8.40;99.90;;;;;;4930666;28;20147;-72
2024/03/20 07:21:12;;;;;;;14.25;6.60;;;8.50;99.90;;;;;;4951453;28;20114;-70
2024/03/20 07:23:37;;;;;;;14.75;5.75;;;8.60;99.90;;;;;;4940822;29;20114;-71
2024/03/20 07:26:03;;;;;;;12.77;5.38;;;8.60;99.90;;;;;;4935964;29;20039;-72
2024/03/20 07:28:29;;;;;;;12.20;5.95;;;8.70;99.90;;;;;;4944935;29;20032;-70
2024/03/20 07:30:55;;;;;;;27.75;6.82;;;8.80;99.90;;;;;;4941478;29;20027;-71
2024/03/20 07:33:20;;;;;;;16.60;6.30;;;8.80;99.90;;;;;;4932549;28;20032;-70
2024/03/20 07:35:47;;;;;;;19.52;7.05;;;8.90;99.90;;;;;;4950411;28;20039;-69
2024/03/20 07:38:13;;;;;;;11.38;7.03;;;9.10;99.90;;;;;;4941419;29;20040;-70
2024/03/20 07:40:43;;;;;;;12.50;6.35;;;9.20;99.90;;;;;;4950653;28;20040;-70
2024/03/20 07:43:09;;;;;;;13.57;6.28;;;9.30;99.90;;;;;;4944316;29;20024;-69
2024/03/20 07:45:36;;;;;;;15.00;7.43;;;9.30;99.90;;;;;;4936763;29;20111;-70
2024/03/20 07:48:03;;;;;;;12.73;6.13;;;9.40;99.90;;;;;;4934626;28;20079;-69
2024/03/20 07:50:28;;;;;;;15.65;5.90;;;9.60;99.90;;;;;;4952233;28;20501;-69
2024/03/20 07:52:54;;;;;;;13.45;5.80;;;9.50;99.90;;;;;;4936007;28;20059;-70
2024/03/20 07:55:22;;;;;;;12.10;6.70;;;9.30;99.90;;;;;;4950193;29;20451;-69
2024/03/20 07:57:48;;;;;;;9.38;5.38;;;9.40;99.90;;;;;;4944125;28;20034;-70
2024/03/20 08:00:17;;;;;;;11.25;6.80;;;9.70;99.90;;;;;;4934480;29;20046;-70
2024/03/20 08:02:43;;;;;;;18.63;7.35;;;9.90;99.90;;;;;;4928159;29;20555;-71
2024/03/20 08:05:11;;;;;;;11.77;6.18;;;10.00;99.90;;;;;;4941864;28;20051;-71
2024/03/20 08:07:40;;;;;;;15.27;6.28;;;10.10;99.90;;;;;;4928292;29;20039;-72
2024/03/20 08:10:08;;;;;;;13.75;6.13;;;10.20;99.90;;;;;;4935739;29;20429;-71
2024/03/20 08:12:36;;;;;;;12.10;6.30;;;10.40;99.90;;;;;;4945817;28;20064;-72
2024/03/20 08:15:03;;;;;;;17.45;7.32;;;10.60;99.90;;;;;;4952748;28;20102;-75
2024/03/20 08:17:29;;;;;;;11.13;6.07;;;10.70;99.90;;;;;;4931156;28;20032;-72
2024/03/20 08:19:57;;;;;;;18.63;6.30;;;10.60;99.90;;;;;;4935876;29;20032;-73
2024/03/20 08:22:23;;;;;;;15.48;5.97;;;10.70;99.90;;;;;;4929361;29;20167;-72
2024/03/20 08:24:49;;;;;;;10.52;5.72;;;10.90;99.90;;;;;;4950030;28;20491;-73
2024/03/20 08:27:15;;;;;;;12.23;5.65;;;11.00;99.90;;;;;;4944247;28;20374;-73
2024/03/20 08:29:41;;;;;;;11.90;5.63;;;11.00;99.90;;;;;;4935504;29;20051;-75
2024/03/20 08:32:09;;;;;;;17.77;5.22;;;11.10;99.90;;;;;;4930348;29;20040;-73
2024/03/20 08:34:35;;;;;;;14.38;6.20;;;11.40;99.90;;;;;;4933196;29;20396;-73
2024/03/20 08:37:01;;;;;;;15.85;4.53;;;11.60;99.90;;;;;;4930333;29;20036;-73
2024/03/20 08:39:27;;;;;;;11.93;5.85;;;11.40;99.90;;;;;;4947884;28;20043;-74
2024/03/20 08:41:53;;;;;;;19.33;6.28;;;11.50;99.90;;;;;;4939928;29;20024;-73
2024/03/20 08:44:18;;;;;;;9.45;5.40;;;11.80;99.90;;;;;;4932286;29;20114;-73
2024/03/20 08:46:44;;;;;;;15.00;6.05;;;11.90;99.90;;;;;;4938970;28;20055;-71
2024/03/20 08:49:10;;;;;;;18.08;6.88;;;12.10;99.90;;;;;;4945515;29;20032;-72
2024/03/20 08:51:36;;;;;;;17.30;5.97;;;12.10;99.90;;;;;;4941503;29;20047;-72
2024/03/20 08:54:02;;;;;;;12.20;6.63;;;12.20;99.90;;;;;;4929974;29;20492;-73
2024/03/20 08:56:28;;;;;;;13.77;6.70;;;12.20;99.90;;;;;;4941922;29;20055;-72
2024/03/20 08:58:54;;;;;;;10.82;5.50;;;12.50;99.90;;;;;;4948532;28;20491;-72
2024/03/20 09:01:20;;;;;;;14.80;6.57;;;12.60;99.90;;;;;;4932053;29;20035;-73
2024/03/20 09:03:46;;;;;;;12.23;5.07;;;12.80;99.90;;;;;;4939708;29;20040;-72
2024/03/20 09:06:12;;;;;;;11.63;6.97;;;13.00;99.90;;;;;;4930379;29;20036;-72
2024/03/20 09:08:38;;;;;;;11.20;5.88;;;13.20;99.90;;;;;;4942758;28;20042;-73
2024/03/20 09:11:03;;;;;;;19.15;7.82;;;13.10;99.90;;;;;;4935403;29;20027;-73
2024/03/20 09:13:31;;;;;;;14.30;6.47;;;12.80;99.90;;;;;;4928086;29;20053;-72
2024/03/20 09:15:57;;;;;;;10.73;6.00;;;13.10;99.90;;;;;;4934377;29;20035;-73
2024/03/20 09:18:23;;;;;;;14.77;6.57;;;13.10;99.90;;;;;;4933667;29;20067;-73
2024/03/20 09:20:52;;;;;;;11.90;6.35;;;13.10;99.90;;;;;;4949256;29;20024;-72
2024/03/20 09:23:21;;;;;;;14.18;6.72;;;13.10;99.90;;;;;;4942758;28;20031;-73
2024/03/20 09:25:47;;;;;;;21.02;6.13;;;13.60;99.90;;;;;;4948606;28;20098;-73
2024/03/20 09:28:13;;;;;;;14.50;6.80;;;13.80;99.90;;;;;;4927744;29;20032;-74
2024/03/20 09:30:38;;;;;;;17.05;7.55;;;14.10;99.90;;;;;;4932992;29;20028;-74
2024/03/20 09:33:05;;;;;;;12.70;6.85;;;14.30;99.90;;;;;;4942419;28;20035;-73
2024/03/20 09:35:32;;;;;;;16.20;8.63;;;14.00;99.90;;;;;;4956828;23;20389;-70
2024/03/20 09:37:58;;;;;;;16.00;8.23;;;13.60;99.90;;;;;;4954246;28;20023;-70
2024/03/20 09:40:26;;;;;;;20.65;7.43;;;14.10;99.90;;;;;;4946311;28;20059;-70
2024/03/20 09:42:53;;;;;;;19.48;7.57;;;14.40;99.90;;;;;;4952640;28;20035;-70
2024/03/20 09:45:22;;;;;;;19.80;7.78;;;14.60;99.90;;;;;;4945767;28;20027;-70
2024/03/20 09:47:50;;;;;;;15.80;7.32;;;14.40;99.90;;;;;;4952659;28;20023;-71
2024/03/20 09:50:16;;;;;;;18.40;8.45;;;14.80;99.90;;;;;;4961545;28;20043;-70
2024/03/20 09:52:43;;;;;;;12.60;7.85;;;14.80;99.90;;;;;;4964576;28;20031;-71
2024/03/20 09:55:15;;;;;;;17.70;7.70;;;15.00;99.90;;;;;;4946603;28;20035;-71
2024/03/20 09:57:46;;;;;;;15.13;7.40;;;15.50;99.90;;;;;;4968147;28;20023;-71
2024/03/20 10:00:18;;;;;;;15.43;7.30;;;15.80;99.90;;;;;;4945280;28;20066;-71
2024/03/20 10:02:46;;;;;;;15.15;6.72;;;15.70;99.90;;;;;;4928599;29;20125;-71
2024/03/20 10:05:15;;;;;;;16.35;7.40;;;15.30;99.90;;;;;;4945751;28;20039;-70
2024/03/20 10:07:43;;;;;;;16.98;7.45;;;15.60;99.90;;;;;;4951097;28;20038;-71
2024/03/20 10:10:13;;;;;;;23.08;8.57;;;16.10;99.90;;;;;;4946948;28;20062;-70
2024/03/20 10:12:40;;;;;;;15.75;6.60;;;15.90;99.90;;;;;;4952686;29;20035;-70
2024/03/20 10:15:10;;;;;;;26.40;8.20;;;15.60;99.90;;;;;;4945106;29;20028;-73
2024/03/20 10:17:38;;;;;;;15.45;6.85;;;15.90;99.90;;;;;;4966364;28;20028;-70
2024/03/20 10:20:16;;;;;;;17.05;7.13;;;16.10;99.90;;;;;;4945944;28;20031;-71
2024/03/20 10:22:43;;;;;;;21.70;6.85;;;15.60;99.90;;;;;;4971570;28;20031;-71
2024/03/20 10:25:18;;;;;;;23.85;7.60;;;15.90;99.90;;;;;;4948708;28;20118;-71
2024/03/20 10:27:46;;;;;;;18.77;7.80;;;16.20;99.90;;;;;;4949843;29;20475;-70
2024/03/20 10:30:19;;;;;;;14.25;6.50;;;16.70;99.90;;;;;;4949871;28;20047;-70
2024/03/20 10:32:52;;;;;;;15.70;7.30;;;16.70;99.90;;;;;;4971946;28;20047;-70
2024/03/20 10:35:23;;;;;;;12.85;5.55;;;16.60;99.90;;;;;;4948691;28;20503;-70
2024/03/20 10:37:50;;;;;;;15.18;6.53;;;16.50;99.90;;;;;;4957279;28;20026;-71
2024/03/20 10:40:21;;;;;;;13.50;6.55;;;16.60;99.90;;;;;;4948630;29;20501;-70
2024/03/20 10:42:50;;;;;;;;;;;16.50;99.90;;;;;;4971991;28;20051;-70
2024/03/20 10:45:18;;;;;;;11.43;5.88;;;16.10;99.90;;;;;;4948848;28;19930;-70
2024/03/20 10:47:45;;;;;;;17.60;6.82;;;16.70;99.90;;;;;;4939074;29;20031;-70
2024/03/20 10:50:18;;;;;;;13.85;6.22;;;16.90;99.90;;;;;;4949873;28;20040;-71
2024/03/20 10:52:49;;;;;;;14.60;5.82;;;17.30;99.90;;;;;;4956937;28;20015;-71
2024/03/20 10:55:18;;;;;;;15.75;6.20;;;17.90;99.90;;;;;;4947785;29;20477;-70
2024/03/20 10:57:49;;;;;;;14.25;6.35;;;17.60;99.90;;;;;;4963380;28;20023;-70
2024/03/20 11:00:17;;;;;;;32.17;6.55;;;17.60;99.90;;;;;;4948096;28;20044;-70
2024/03/20 11:02:44;;;;;;;12.52;5.68;;;17.40;99.90;;;;;;4971027;28;20090;-69
2024/03/20 11:05:39;;;;;;;9.30;5.60;;;18.00;99.90;;;;;;4947742;29;20536;-71
2024/03/20 11:08:08;;;;;;;10.73;5.10;;;18.00;99.90;;;;;;4951155;29;20031;-71
2024/03/20 11:10:47;;;;;;;12.88;5.65;;;17.90;99.90;;;;;;4955018;28;20055;-71
2024/03/20 11:13:22;;;;;;;13.00;5.25;;;17.60;99.90;;;;;;4941030;29;20042;-70
2024/03/20 11:15:51;;;;;;;10.73;4.97;;;18.20;99.90;;;;;;4946413;28;20165;-70
2024/03/20 11:18:25;;;;;;;11.68;5.80;;;18.70;99.90;;;;;;4956163;28;20101;-70
2024/03/20 11:20:51;;;;;;;10.73;5.60;;;19.70;99.10;;;;;;4954624;28;20110;-70
2024/03/20 11:23:26;;;;;;;14.23;5.28;;;18.60;98.90;;;;;;4956031;29;20106;-70
2024/03/20 11:25:52;;;;;;;11.52;5.10;;;18.80;99.90;;;;;;4947056;28;20035;-70
2024/03/20 11:28:19;;;;;;;11.10;5.32;;;19.50;98.30;;;;;;4970563;28;20062;-71
2024/03/20 11:30:49;;;;;;;13.55;5.28;;;20.00;98.00;;;;;;4948180;28;20023;-70
2024/03/20 11:33:15;;;;;;;10.80;4.68;;;19.40;96.80;;;;;;4955458;28;20480;-70
2024/03/20 11:35:41;;;;;;;9.40;4.38;;;18.70;98.60;;;;;;4954384;28;20039;-70
2024/03/20 11:38:18;;;;;;;15.07;5.85;;;18.60;99.10;;;;;;4954312;29;20440;-70
2024/03/20 11:40:45;;;;;;;7.30;3.85;;;18.90;99.90;;;;;;4939084;29;20031;-70
2024/03/20 11:43:12;;;;;;;12.80;4.30;;;19.20;99.30;;;;;;4955195;29;20583;-70
2024/03/20 11:45:38;;;;;;;10.85;5.18;;;19.90;98.30;;;;;;4946875;28;20134;-70
2024/03/20 11:48:04;;;;;;;7.88;3.65;;;19.40;97.70;;;;;;4954290;29;20102;-72
2024/03/20 11:50:30;;;;;;;6.68;3.38;;;19.50;97.10;;;;;;4945440;29;20028;-70
2024/03/20 11:52:56;;;;;;;6.63;3.05;;;19.20;97.00;;;;;;4953916;29;20078;-70
2024/03/20 11:55:22;;;;;;;7.63;3.88;;;19.10;96.60;;;;;;4945735;28;20034;-70
2024/03/20 11:57:48;;;;;;;7.60;3.88;;;19.50;97.20;;;;;;4954024;28;20039;-70
2024/03/20 12:00:17;;;;;;;11.65;4.15;;;19.10;97.50;;;;;;4947020;28;20845;-70
2024/03/20 12:02:45;;;;;;;6.15;3.28;;;20.10;96.70;;;;;;4969623;28;20046;-70
2024/03/20 12:05:14;;;;;;;7.18;3.72;;;20.60;96.50;;;;;;4946583;28;20067;-70
2024/03/20 12:07:39;;;;;;;9.30;3.70;;;19.80;94.80;;;;;;4953133;29;20046;-70
2024/03/20 12:10:30;;;;;;;7.28;3.08;;;20.10;94.80;;;;;;4949199;28;20115;-70
2024/03/20 12:12:55;;;;;;;6.72;3.13;;;20.00;95.60;;;;;;4948895;28;20035;-70
2024/03/20 12:15:21;;;;;;;9.27;3.80;;;20.50;95.80;;;;;;4946674;28;20054;-71
2024/03/20 12:17:50;;;;;;;6.50;3.00;;;20.90;93.70;;;;;;4955542;28;20101;-70
2024/03/20 12:20:16;;;;;;;5.95;3.30;;;21.10;92.90;;;;;;4953430;29;20431;-70
2024/03/20 12:22:44;;;;;;;6.88;2.95;;;21.50;92.30;;;;;;4969421;28;20039;-70
2024/03/20 12:25:12;;;;;;;6.47;3.13;;;21.70;91.00;;;;;;4952721;28;20031;-71
2024/03/20 12:27:37;;;;;;;9.23;4.07;;;22.50;90.50;;;;;;4969033;28;20050;-71
2024/03/20 12:30:05;;;;;;;10.60;4.35;;;22.20;90.80;;;;;;4948863;28;20400;-71
2024/03/20 12:32:32;;;;;;;5.35;2.80;;;22.00;90.50;;;;;;4953090;28;20381;-71
2024/03/20 12:34:59;;;;;;;6.63;3.08;;;22.10;91.30;;;;;;4952015;28;20392;-71
2024/03/20 12:37:29;;;;;;;5.30;2.85;;;22.00;89.50;;;;;;4954506;28;20027;-71
2024/03/20 12:39:55;;;;;;;5.53;2.67;;;23.50;84.10;;;;;;4949182;28;20039;-74
2024/03/20 12:42:22;;;;;;;14.10;3.40;;;23.30;82.60;;;;;;4949855;28;20046;-71